createdAt,value
2023-05-10T00:01:24.206Z,100689.54
2023-05-10T00:03:56.738Z,100685.45
2023-05-10T00:06:27.849Z,100683.83
2023-05-10T00:09:01.228Z,100678.78
2023-05-10T00:11:32.348Z,100676.08
2023-05-10T00:14:06.255Z,100671.85
2023-05-10T00:16:37.072Z,100672.78
2023-05-10T00:19:11.919Z,100668.55
2023-05-10T00:21:43.269Z,100666.42
2023-05-10T00:24:13.686Z,100669.74
2023-05-10T00:26:45.011Z,100666.84
2023-05-10T00:29:20.848Z,100666.19
2023-05-10T00:31:51.479Z,100663.11
2023-05-10T00:34:23.843Z,100661.62
2023-05-10T00:36:56.320Z,100658.42
2023-05-10T00:39:32.851Z,100664.60
2023-05-10T00:42:03.832Z,100664.31
2023-05-10T00:44:38.237Z,100663.81
2023-05-10T00:47:10.716Z,100659.68
2023-05-10T00:49:45.253Z,100654.88
2023-05-10T00:52:17.618Z,100651.30
2023-05-10T00:54:49.161Z,100649.58
2023-05-10T00:57:26.834Z,100647.45
2023-05-10T00:59:59.324Z,100650.45
2023-05-10T01:02:30.073Z,100646.80
2023-05-10T01:05:01.850Z,100643.17
2023-05-10T01:07:34.879Z,100641.80
2023-05-10T01:10:10.128Z,100639.89
2023-05-10T01:12:47.281Z,100636.45
2023-05-10T01:15:19.734Z,100633.55
2023-05-10T01:17:50.733Z,100630.09
2023-05-10T01:20:21.010Z,100632.34
2023-05-10T01:23:20.167Z,100629.05
2023-05-10T01:26:25.812Z,100623.27
2023-05-10T01:29:28.311Z,100627.25
2023-05-10T01:32:01.799Z,100623.42
2023-05-10T01:34:59.581Z,100620.95
2023-05-10T01:38:03.476Z,100625.67
2023-05-10T01:41:08.615Z,100624.02
2023-05-10T01:44:21.403Z,100622.13
2023-05-10T01:47:06.607Z,100619.80
2023-05-10T01:49:55.143Z,100620.45
2023-05-10T01:52:46.240Z,100622.87
2023-05-10T01:55:21.774Z,100618.96
2023-05-10T01:58:04.815Z,100620.58
2023-05-10T02:00:36.799Z,100619.95
2023-05-10T02:03:12.942Z,100620.84
2023-05-10T02:05:46.325Z,100616.20
2023-05-10T02:08:22.570Z,100613.46
2023-05-10T02:10:58.130Z,100610.75
2023-05-10T02:13:31.521Z,100607.33
2023-05-10T02:16:07.119Z,100607.89
2023-05-10T02:18:39.895Z,100608.31
2023-05-10T02:21:18.776Z,100611.92
2023-05-10T02:23:56.882Z,100606.59
2023-05-10T02:26:30.791Z,100609.54
2023-05-10T02:29:05.731Z,100604.55
2023-05-10T02:31:40.179Z,100606.05
2023-05-10T02:34:13.859Z,100608.43
2023-05-10T02:36:45.727Z,100606.37
2023-05-10T02:39:20.837Z,100607.45
2023-05-10T02:41:53.723Z,100604.54
2023-05-10T02:44:25.402Z,100609.06
2023-05-10T02:46:57.342Z,100608.72
2023-05-10T02:49:27.882Z,100608.11
2023-05-10T02:52:07.308Z,100604.38
2023-05-10T02:54:48.802Z,100600.31
2023-05-10T02:57:35.947Z,100602.41
2023-05-10T03:00:08.301Z,100602.08
2023-05-10T03:02:39.447Z,100599.63
2023-05-10T03:05:10.982Z,100606.02
2023-05-10T03:07:47.791Z,100609.30
2023-05-10T03:10:19.934Z,100607.91
2023-05-10T03:12:59.375Z,100607.92
2023-05-10T03:15:44.010Z,100607.55
2023-05-10T03:18:24.821Z,100606.14
2023-05-10T03:21:06.995Z,100603.52
2023-05-10T03:23:55.447Z,100602.62
2023-05-10T03:26:29.636Z,100606.39
2023-05-10T03:29:16.708Z,100604.95
2023-05-10T03:31:49.074Z,100603.30
2023-05-10T03:34:26.442Z,100607.95
2023-05-10T03:36:59.213Z,100604.44
2023-05-10T03:39:29.748Z,100601.09
2023-05-10T03:42:01.504Z,100601.51
2023-05-10T03:44:32.644Z,100597.09
2023-05-10T03:47:03.082Z,100597.48
2023-05-10T03:49:34.116Z,100597.18
2023-05-10T03:52:07.609Z,100597.44
2023-05-10T03:54:39.354Z,100597.67
2023-05-10T03:57:15.320Z,100594.92
2023-05-10T03:59:46.988Z,100590.64
2023-05-10T04:02:19.498Z,100588.30
2023-05-10T04:05:04.033Z,100585.61
2023-05-10T04:07:34.141Z,100593.61
2023-05-10T04:10:07.214Z,100594.02
2023-05-10T04:12:37.327Z,100595.66
2023-05-10T04:15:08.161Z,100595.05
2023-05-10T04:17:39.178Z,100592.77
2023-05-10T04:20:12.313Z,100590.14
2023-05-10T04:22:42.828Z,100591.72
2023-05-10T04:25:13.876Z,100589.64
2023-05-10T04:27:44.280Z,100596.08
2023-05-10T04:30:14.964Z,100592.93
2023-05-10T04:32:45.267Z,100594.05
2023-05-10T04:35:16.293Z,100594.56
2023-05-10T04:37:46.509Z,100593.97
2023-05-10T04:40:16.988Z,100591.96
2023-05-10T04:42:47.861Z,100595.90
2023-05-10T04:45:18.419Z,100598.46
2023-05-10T04:47:48.537Z,100605.62
2023-05-10T04:50:18.965Z,100602.02
2023-05-10T04:52:48.960Z,100599.30
2023-05-10T04:55:19.059Z,100599.64
2023-05-10T04:57:49.084Z,100599.91
2023-05-10T05:00:19.530Z,100601.66
2023-05-10T05:02:49.528Z,100598.33
2023-05-10T05:05:19.982Z,100599.25
2023-05-10T05:07:50.293Z,100595.34
2023-05-10T05:10:20.743Z,100600.73
2023-05-10T05:12:50.945Z,100601.91
2023-05-10T05:15:21.579Z,100598.70
2023-05-10T05:17:51.367Z,100595.23
2023-05-10T05:20:21.881Z,100603.66
2023-05-10T05:22:52.216Z,100602.91
2023-05-10T05:25:22.848Z,100603.86
2023-05-10T05:27:55.834Z,100604.02
2023-05-10T05:30:26.064Z,100606.23
2023-05-10T05:32:56.337Z,100607.38
2023-05-10T05:35:26.813Z,100608.13
2023-05-10T05:37:57.444Z,100602.79
2023-05-10T05:40:27.653Z,100605.59
2023-05-10T05:42:58.083Z,100608.10
2023-05-10T05:45:30.681Z,100608.02
2023-05-10T05:48:02.273Z,100605.48
2023-05-10T05:50:34.811Z,100603.42
2023-05-10T05:53:05.315Z,100604.86
2023-05-10T05:55:35.650Z,100608.05
2023-05-10T05:58:06.491Z,100602.65
2023-05-10T06:00:36.705Z,100600.85
2023-05-10T06:03:08.992Z,100606.42
2023-05-10T06:05:39.906Z,100603.83
2023-05-10T06:08:10.027Z,100603.70
2023-05-10T06:10:40.159Z,100598.94
2023-05-10T06:13:11.411Z,100596.85
2023-05-10T06:15:41.625Z,100600.98
2023-05-10T06:18:11.754Z,100601.77
2023-05-10T06:20:45.126Z,100606.53
2023-05-10T06:23:15.265Z,100608.28
2023-05-10T06:25:45.566Z,100611.61
2023-05-10T06:28:15.894Z,100604.84
2023-05-10T06:30:48.667Z,100604.32
2023-05-10T06:33:18.782Z,100601.08
2023-05-10T06:35:48.800Z,100600.27
2023-05-10T06:38:18.928Z,100593.77
2023-05-10T06:40:49.055Z,100605.65
2023-05-10T06:43:26.340Z,100602.83
2023-05-10T06:46:02.008Z,100598.80
2023-05-10T06:48:33.027Z,100598.38
2023-05-10T06:51:03.145Z,100602.23
2023-05-10T06:53:33.254Z,100600.33
2023-05-10T06:56:04.751Z,100596.05
2023-05-10T06:58:37.617Z,100596.29
2023-05-10T07:01:07.941Z,100590.91
2023-05-10T07:03:38.655Z,100588.84
2023-05-10T07:06:21.684Z,100587.75
2023-05-10T07:09:00.498Z,100584.73
2023-05-10T07:11:30.514Z,100582.38
2023-05-10T07:14:01.044Z,100577.83
2023-05-10T07:16:31.094Z,100575.73
2023-05-10T07:19:01.276Z,100576.19
2023-05-10T07:21:32.673Z,100573.11
2023-05-10T07:24:03.153Z,100569.92
2023-05-10T07:26:33.666Z,100570.05
2023-05-10T07:29:04.000Z,100567.41
2023-05-10T07:31:34.447Z,100568.80
2023-05-10T07:34:04.763Z,100565.82
2023-05-10T07:36:35.281Z,100566.41
2023-05-10T07:39:06.423Z,100568.77
2023-05-10T07:41:40.129Z,100563.50
2023-05-10T07:44:10.548Z,100567.09
2023-05-10T07:46:41.369Z,100562.52
2023-05-10T07:49:11.831Z,100566.63
2023-05-10T07:51:42.536Z,100565.44
2023-05-10T07:54:14.403Z,100562.33
2023-05-10T07:56:48.822Z,100568.54
2023-05-10T07:59:19.367Z,100564.86
2023-05-10T08:01:49.573Z,100566.06
2023-05-10T08:04:20.158Z,100562.45
2023-05-10T08:06:50.554Z,100556.07
2023-05-10T08:09:25.359Z,100554.98
2023-05-10T08:11:55.979Z,100551.29
2023-05-10T08:14:26.926Z,100557.84
2023-05-10T08:16:58.141Z,100553.80
2023-05-10T08:19:29.496Z,100553.91
2023-05-10T08:22:04.370Z,100547.80
2023-05-10T08:24:41.243Z,100547.21
2023-05-10T08:27:11.861Z,100542.75
2023-05-10T08:29:50.141Z,100549.00
2023-05-10T08:32:21.113Z,100548.25
2023-05-10T08:34:57.776Z,100551.83
2023-05-10T08:37:32.498Z,100551.41
2023-05-10T08:40:02.842Z,100551.71
2023-05-10T08:42:42.286Z,100543.83
2023-05-10T08:45:13.284Z,100547.79
2023-05-10T08:47:44.219Z,100549.83
2023-05-10T08:50:16.832Z,100552.73
2023-05-10T08:52:52.053Z,100548.38
2023-05-10T08:55:25.658Z,100557.13
2023-05-10T08:57:56.680Z,100555.46
2023-05-10T09:00:30.487Z,100557.54
2023-05-10T09:03:01.903Z,100550.23
2023-05-10T09:05:32.691Z,100554.44
2023-05-10T09:08:02.715Z,100552.92
2023-05-10T09:10:34.087Z,100546.81
2023-05-10T09:13:05.140Z,100544.78
2023-05-10T09:15:36.428Z,100548.20
2023-05-10T09:18:06.889Z,100538.94
2023-05-10T09:20:37.187Z,100542.28
2023-05-10T09:23:12.630Z,100533.33
2023-05-10T09:25:45.587Z,100536.54
2023-05-10T09:28:15.660Z,100529.94
2023-05-10T09:30:55.008Z,100529.24
2023-05-10T09:33:28.050Z,100535.35
2023-05-10T09:36:09.994Z,100534.85
2023-05-10T09:38:53.900Z,100539.49
2023-05-10T09:41:25.189Z,100538.06
2023-05-10T09:43:58.316Z,100536.78
2023-05-10T09:46:33.002Z,100537.02
2023-05-10T09:49:03.204Z,100541.91
2023-05-10T09:51:35.629Z,100540.55
2023-05-10T09:54:18.284Z,100538.12
2023-05-10T09:56:48.401Z,100529.45
2023-05-10T09:59:20.875Z,100531.04
2023-05-10T10:01:57.979Z,100538.34
2023-05-10T10:04:31.259Z,100539.88
2023-05-10T10:07:05.482Z,100529.52
2023-05-10T10:09:37.181Z,100525.94
2023-05-10T10:12:07.704Z,100526.77
2023-05-10T10:14:43.788Z,100531.98
2023-05-10T10:17:14.681Z,100528.52
2023-05-10T10:19:47.203Z,100521.70
2023-05-10T10:22:21.388Z,100513.63
2023-05-10T10:24:52.967Z,100514.98
2023-05-10T10:28:10.452Z,100522.17
2023-05-10T10:30:47.318Z,100518.38
2023-05-10T10:33:55.296Z,100510.86
2023-05-10T10:36:28.334Z,100514.19
2023-05-10T10:39:09.089Z,100510.04
2023-05-10T10:41:57.770Z,100495.96
2023-05-10T10:44:32.051Z,100503.69
2023-05-10T10:47:30.279Z,100504.70
2023-05-10T10:50:03.633Z,100495.52
2023-05-10T10:52:38.323Z,100497.45
2023-05-10T10:55:25.003Z,100494.02
2023-05-10T10:58:07.355Z,100493.41
2023-05-10T11:00:39.257Z,100485.81
2023-05-10T11:03:20.127Z,100491.34
2023-05-10T11:05:53.281Z,100497.01
2023-05-10T11:08:36.934Z,100492.67
2023-05-10T11:11:10.617Z,100490.69
2023-05-10T11:13:49.211Z,100489.66
2023-05-10T11:16:43.194Z,100498.20
2023-05-10T11:19:17.682Z,100491.92
2023-05-10T11:22:07.009Z,100493.65
2023-05-10T11:24:37.571Z,100486.73
2023-05-10T11:27:09.067Z,100474.84
2023-05-10T11:29:39.990Z,100478.75
2023-05-10T11:32:13.414Z,100471.80
2023-05-10T11:34:49.105Z,100477.89
2023-05-10T11:37:23.301Z,100478.02
2023-05-10T11:39:56.931Z,100479.32
2023-05-10T11:42:31.882Z,100481.61
2023-05-10T11:45:07.496Z,100474.66
2023-05-10T11:47:47.586Z,100476.17
2023-05-10T11:50:25.277Z,100478.86
2023-05-10T11:52:58.217Z,100473.45
2023-05-10T11:55:31.774Z,100476.13
2023-05-10T11:58:05.602Z,100468.77
2023-05-10T12:00:36.495Z,100468.45
2023-05-10T12:03:09.301Z,100465.14
2023-05-10T12:05:41.567Z,100463.59
2023-05-10T12:08:15.747Z,100467.16
2023-05-10T12:10:46.472Z,100473.02
2023-05-10T12:13:25.388Z,100469.34
2023-05-10T12:16:02.034Z,100474.40
2023-05-10T12:18:42.112Z,100474.71
2023-05-10T12:21:16.553Z,100469.77
2023-05-10T12:23:52.357Z,100472.42
2023-05-10T12:26:30.885Z,100472.03
2023-05-10T12:29:20.820Z,100465.95
2023-05-10T12:32:02.570Z,100466.98
2023-05-10T12:34:36.553Z,100470.39
2023-05-10T12:37:07.543Z,100465.92
2023-05-10T12:40:00.184Z,100457.95
2023-05-10T12:42:36.865Z,100467.36
2023-05-10T12:45:15.401Z,100466.80
2023-05-10T12:47:45.722Z,100470.98
2023-05-10T12:50:16.557Z,100465.16
2023-05-10T12:52:47.317Z,100460.05
2023-05-10T12:55:17.509Z,100451.83
2023-05-10T12:57:47.995Z,100453.05
2023-05-10T13:00:19.368Z,100456.23
2023-05-10T13:02:49.663Z,100452.17
2023-05-10T13:05:19.928Z,100449.80
2023-05-10T13:07:51.345Z,100452.61
2023-05-10T13:10:25.367Z,100453.04
2023-05-10T13:13:00.288Z,100451.73
2023-05-10T13:15:32.427Z,100444.20
2023-05-10T13:18:05.969Z,100444.98
2023-05-10T13:20:35.872Z,100444.11
2023-05-10T13:23:06.114Z,100443.77
2023-05-10T13:25:36.247Z,100438.63
2023-05-10T13:28:06.366Z,100439.67
2023-05-10T13:30:36.627Z,100435.22
2023-05-10T13:33:07.085Z,100431.58
2023-05-10T13:35:37.754Z,100427.17
2023-05-10T13:38:09.347Z,100423.60
2023-05-10T13:40:39.588Z,100424.27
2023-05-10T13:43:09.315Z,100425.42
2023-05-10T13:45:39.036Z,100424.46
2023-05-10T13:48:08.973Z,100423.46
2023-05-10T13:50:39.824Z,100422.58
2023-05-10T13:53:09.719Z,100414.61
2023-05-10T13:55:40.221Z,100414.23
2023-05-10T13:58:12.264Z,100410.86
2023-05-10T14:00:43.254Z,100414.84
2023-05-10T14:03:16.557Z,100409.71
2023-05-10T14:05:49.999Z,100411.15
2023-05-10T14:08:24.042Z,100402.86
2023-05-10T14:11:16.269Z,100408.68
2023-05-10T14:13:47.736Z,100409.35
2023-05-10T14:16:18.323Z,100406.54
2023-05-10T14:18:49.149Z,100403.40
2023-05-10T14:21:19.249Z,100402.37
2023-05-10T14:23:49.273Z,100393.86
2023-05-10T14:26:22.052Z,100394.71
2023-05-10T14:28:52.913Z,100393.91
2023-05-10T14:31:24.550Z,100391.64
2023-05-10T14:33:58.040Z,100396.15
2023-05-10T14:36:30.127Z,100399.98
2023-05-10T14:39:04.881Z,100394.52
2023-05-10T14:41:35.168Z,100396.90
2023-05-10T14:44:05.429Z,100395.48
2023-05-10T14:46:36.406Z,100390.75
2023-05-10T14:49:06.323Z,100389.09
2023-05-10T14:51:37.851Z,100387.85
2023-05-10T14:54:07.663Z,100389.88
2023-05-10T14:56:38.762Z,100385.89
2023-05-10T14:59:10.178Z,100386.90
2023-05-10T15:01:43.299Z,100389.55
2023-05-10T15:04:14.998Z,100390.87
2023-05-10T15:06:45.806Z,100391.90
2023-05-10T15:09:17.865Z,100389.28
2023-05-10T15:11:48.293Z,100391.86
2023-05-10T15:14:18.840Z,100388.77
2023-05-10T15:16:49.493Z,100388.61
2023-05-10T15:19:19.779Z,100389.99
2023-05-10T15:21:57.488Z,100395.19
2023-05-10T15:24:29.028Z,100389.11
2023-05-10T15:27:01.100Z,100387.16
2023-05-10T15:29:33.684Z,100392.95
2023-05-10T15:32:04.489Z,100394.34
2023-05-10T15:34:39.681Z,100391.27
2023-05-10T15:37:10.092Z,100390.61
2023-05-10T15:39:41.217Z,100397.11
2023-05-10T15:42:14.664Z,100392.17
2023-05-10T15:44:46.110Z,100393.21
2023-05-10T15:47:16.845Z,100391.05
2023-05-10T15:49:52.967Z,100390.61
2023-05-10T15:52:26.375Z,100389.61
2023-05-10T15:54:57.217Z,100388.06
2023-05-10T15:57:27.764Z,100384.21
2023-05-10T16:00:04.280Z,100387.52
2023-05-10T16:02:42.911Z,100385.67
2023-05-10T16:05:24.535Z,100384.15
2023-05-10T16:08:06.903Z,100381.74
2023-05-10T16:10:38.826Z,100386.42
2023-05-10T16:13:17.794Z,100385.48
2023-05-10T16:15:50.374Z,100394.78
2023-05-10T16:18:30.321Z,100395.98
2023-05-10T16:21:27.731Z,100394.20
2023-05-10T16:24:10.880Z,100393.42
2023-05-10T16:26:43.139Z,100396.02
2023-05-10T16:29:19.601Z,100394.79
2023-05-10T16:31:57.131Z,100396.30
2023-05-10T16:34:33.401Z,100395.63
2023-05-10T16:37:14.541Z,100400.16
2023-05-10T16:39:50.363Z,100399.52
2023-05-10T16:42:21.476Z,100403.02
2023-05-10T16:44:57.276Z,100403.07
2023-05-10T16:47:28.197Z,100396.02
2023-05-10T16:50:08.371Z,100401.52
2023-05-10T16:52:48.439Z,100401.45
2023-05-10T16:55:24.741Z,100405.35
2023-05-10T16:58:01.316Z,100409.63
2023-05-10T17:00:36.831Z,100406.34
2023-05-10T17:03:27.001Z,100403.59
2023-05-10T17:06:45.460Z,100405.12
2023-05-10T17:09:16.273Z,100406.58
2023-05-10T17:11:50.487Z,100414.79
2023-05-10T17:14:23.086Z,100420.89
2023-05-10T17:16:58.205Z,100422.56
2023-05-10T17:19:32.079Z,100425.03
2023-05-10T17:22:04.545Z,100428.67
2023-05-10T17:24:35.567Z,100433.02
2023-05-10T17:27:09.341Z,100431.70
2023-05-10T17:29:45.028Z,100430.84
2023-05-10T17:32:21.166Z,100436.80
2023-05-10T17:34:53.547Z,100439.20
2023-05-10T17:37:28.380Z,100441.80
2023-05-10T17:40:14.570Z,100442.27
2023-05-10T17:42:52.725Z,100443.81
2023-05-10T17:45:31.054Z,100446.20
2023-05-10T17:48:32.211Z,100447.43
2023-05-10T17:51:31.276Z,100451.38
2023-05-10T17:54:19.882Z,100452.27
2023-05-10T17:57:18.122Z,100454.84
2023-05-10T17:59:54.080Z,100458.48
2023-05-10T18:02:53.648Z,100459.88
2023-05-10T18:05:28.353Z,100465.38
2023-05-10T18:11:52.357Z,100473.44
2023-05-10T18:14:40.646Z,100475.04
2023-05-10T18:17:37.220Z,100472.41
2023-05-10T18:20:20.425Z,100472.48
2023-05-10T18:24:39.508Z,100474.14
2023-05-10T18:27:26.701Z,100481.73
2023-05-10T18:30:25.626Z,100483.31
2023-05-10T19:04:06.569Z,100522.02
2023-05-10T19:06:36.858Z,100523.95
2023-05-10T19:09:09.437Z,100532.67
2023-05-10T19:11:41.362Z,100534.18
2023-05-10T19:14:10.348Z,100532.64
2023-05-10T19:16:53.095Z,100538.54
2023-05-10T19:19:24.686Z,100539.43
2023-05-10T19:21:56.205Z,100545.77
2023-05-10T19:24:26.982Z,100543.08
2023-05-10T19:27:06.529Z,100542.29
2023-05-10T19:29:45.281Z,100546.05
2023-05-10T19:32:25.781Z,100544.11
2023-05-10T19:34:58.285Z,100545.31
2023-05-10T19:37:28.731Z,100547.83
2023-05-10T19:40:40.716Z,100551.21
2023-05-10T19:43:25.154Z,100551.95
2023-05-10T19:46:02.988Z,100552.10
2023-05-10T19:48:51.765Z,100555.23
2023-05-10T19:51:52.258Z,100553.63
2023-05-10T19:54:57.744Z,100556.30
2023-05-10T19:58:33.660Z,100560.85
2023-05-10T20:01:35.768Z,100563.88
2023-05-10T20:04:13.451Z,100565.45
2023-05-10T20:06:45.725Z,100565.52
2023-05-10T20:09:30.658Z,100568.38
2023-05-10T20:12:07.725Z,100568.07
2023-05-10T20:14:52.443Z,100571.25
2023-05-10T20:17:44.697Z,100567.80
2023-05-10T20:20:50.093Z,100570.90
2023-05-10T20:23:27.936Z,100573.27
2023-05-10T20:25:58.044Z,100571.60
2023-05-10T20:28:30.539Z,100574.85
2023-05-10T20:31:12.618Z,100575.22
2023-05-10T20:33:54.701Z,100578.66
2023-05-10T20:37:29.145Z,100578.23
2023-05-10T20:40:05.904Z,100574.21
2023-05-10T20:42:59.600Z,100577.53
2023-05-10T20:45:39.720Z,100583.30
2023-05-10T20:48:25.296Z,100583.24
2023-05-10T20:51:01.647Z,100579.24
2023-05-10T20:53:41.196Z,100578.77
2023-05-10T20:56:37.319Z,100582.25
2023-05-10T20:59:26.274Z,100581.46
2023-05-10T21:02:04.471Z,100579.11
2023-05-10T21:04:53.333Z,100581.86
2023-05-10T21:07:36.355Z,100585.33
2023-05-10T21:10:25.273Z,100585.47
2023-05-10T21:13:02.048Z,100590.31
2023-05-10T21:15:42.718Z,100594.18
2023-05-10T21:18:13.703Z,100596.80
2023-05-10T21:20:59.536Z,100598.34
2023-05-10T21:23:39.587Z,100594.62
2023-05-10T21:29:29.191Z,100595.81
2023-05-10T21:32:44.185Z,100596.23
2023-05-10T21:35:27.250Z,100593.96
2023-05-10T21:38:16.317Z,100598.87
2023-05-10T21:41:13.598Z,100602.77
2023-05-10T21:44:33.031Z,100603.56
2023-05-10T21:47:53.606Z,100605.03
2023-05-10T21:50:33.008Z,100602.20
2023-05-10T21:53:15.315Z,100600.13
2023-05-10T21:55:51.572Z,100602.55
2023-05-10T21:58:41.024Z,100600.53
2023-05-10T22:01:28.527Z,100602.17
2023-05-10T22:04:20.519Z,100605.53
2023-05-10T22:07:25.737Z,100604.45
2023-05-10T22:10:13.205Z,100606.02
2023-05-10T22:12:56.619Z,100605.84
2023-05-10T22:15:37.859Z,100606.73
2023-05-10T22:18:25.145Z,100608.02
2023-05-10T22:21:05.952Z,100609.54
2023-05-10T22:23:51.024Z,100613.94
2023-05-10T22:26:30.142Z,100614.77
2023-05-10T22:29:18.727Z,100615.34
2023-05-10T22:32:09.131Z,100615.45
2023-05-10T22:35:15.854Z,100615.35
2023-05-10T22:38:06.257Z,100613.52
2023-05-10T22:40:55.977Z,100612.77
2023-05-10T22:43:47.421Z,100611.44
2023-05-10T22:46:37.686Z,100615.95
2023-05-10T22:49:11.872Z,100614.11
2023-05-10T22:51:47.103Z,100614.86
2023-05-10T22:54:25.312Z,100619.59
2023-05-10T22:57:06.060Z,100620.34
2023-05-10T23:00:03.442Z,100620.54
2023-05-10T23:02:47.947Z,100621.83
2023-05-10T23:05:29.077Z,100622.51
2023-05-10T23:08:11.786Z,100620.45
2023-05-10T23:10:57.258Z,100626.39
2023-05-10T23:13:31.262Z,100627.89
2023-05-10T23:16:08.700Z,100630.23
2023-05-10T23:18:46.868Z,100629.05
2023-05-10T23:21:18.841Z,100628.98
2023-05-10T23:23:48.205Z,100629.09
2023-05-10T23:26:22.178Z,100630.54
2023-05-10T23:28:59.205Z,100633.75
2023-05-10T23:31:38.469Z,100632.59
2023-05-10T23:34:27.910Z,100632.42
2023-05-10T23:37:07.925Z,100633.59
2023-05-10T23:39:52.499Z,100630.55
2023-05-10T23:42:37.305Z,100627.39
2023-05-10T23:45:26.799Z,100628.92
2023-05-10T23:48:31.912Z,100627.59
2023-05-10T23:51:17.862Z,100627.70
2023-05-10T23:53:56.622Z,100625.67
2023-05-10T23:56:42.101Z,100630.17
2023-05-10T23:59:29.408Z,100634.81
